createdAt,value
2023-03-26T00:00:56.556Z,0
2023-03-26T00:02:12.842Z,0
2023-03-26T00:03:29.142Z,0
2023-03-26T00:06:01.732Z,0
2023-03-26T00:07:17.036Z,0
2023-03-26T00:08:33.339Z,0
2023-03-26T00:09:49.619Z,0
2023-03-26T00:11:05.909Z,0
2023-03-26T00:12:22.208Z,0
2023-03-26T00:13:38.499Z,0
2023-03-26T00:14:54.808Z,0
2023-03-26T00:16:11.098Z,0
2023-03-26T00:17:27.387Z,0
2023-03-26T00:18:43.676Z,0
2023-03-26T00:19:59.987Z,0
2023-03-26T00:21:16.277Z,0
2023-03-26T00:22:32.574Z,0
2023-03-26T00:23:47.875Z,0
2023-03-26T00:25:04.159Z,0
2023-03-26T00:26:20.465Z,0
2023-03-26T00:27:36.766Z,0
2023-03-26T00:28:53.050Z,0
2023-03-26T00:30:09.346Z,0
2023-03-26T00:31:25.631Z,0
2023-03-26T00:32:41.944Z,0
2023-03-26T00:33:58.224Z,0
2023-03-26T00:35:14.526Z,0
2023-03-26T00:36:30.821Z,0
2023-03-26T00:37:47.118Z,0
2023-03-26T00:40:19.698Z,0
2023-03-26T00:41:35.009Z,0
2023-03-26T00:42:51.300Z,0
2023-03-26T00:44:07.605Z,0
2023-03-26T00:45:23.900Z,0
2023-03-26T00:46:40.193Z,0
2023-03-26T00:47:56.490Z,0
2023-03-26T00:49:12.767Z,0
2023-03-26T00:50:29.060Z,0
2023-03-26T00:51:45.359Z,0
2023-03-26T00:53:01.648Z,0
2023-03-26T00:55:34.244Z,0
2023-03-26T00:56:50.550Z,0
2023-03-26T00:58:05.846Z,0
2023-03-26T00:59:22.147Z,0
2023-03-26T01:00:38.444Z,0
2023-03-26T01:01:54.736Z,0
2023-03-26T01:03:11.023Z,0
2023-03-26T01:04:27.315Z,0
2023-03-26T01:05:43.612Z,0
2023-03-26T01:06:59.912Z,0
2023-03-26T01:08:16.209Z,0
2023-03-26T01:09:32.506Z,0
2023-03-26T01:10:48.788Z,0
2023-03-26T01:12:05.085Z,0
2023-03-26T01:13:21.393Z,0
2023-03-26T01:14:36.689Z,0
2023-03-26T01:15:52.979Z,0
2023-03-26T01:17:09.276Z,0
2023-03-26T01:18:25.578Z,0
2023-03-26T01:19:41.867Z,0
2023-03-26T01:20:58.171Z,0
2023-03-26T01:22:14.458Z,0
2023-03-26T01:23:30.747Z,0
2023-03-26T01:26:03.340Z,0
2023-03-26T01:27:19.639Z,0
2023-03-26T01:28:35.929Z,0
2023-03-26T01:29:52.226Z,0
2023-03-26T01:31:07.525Z,0
2023-03-26T01:32:23.836Z,0
2023-03-26T01:33:40.114Z,0
2023-03-26T01:34:56.410Z,0
2023-03-26T01:36:12.697Z,0
2023-03-26T01:37:29.009Z,0
2023-03-26T01:38:45.302Z,0
2023-03-26T01:40:01.598Z,0
2023-03-26T01:41:17.893Z,0
2023-03-26T01:42:34.185Z,0
2023-03-26T01:43:50.473Z,0
2023-03-26T01:45:06.770Z,0
2023-03-26T01:46:23.073Z,0
2023-03-26T01:47:38.367Z,0
2023-03-26T01:48:54.675Z,0
2023-03-26T01:50:10.966Z,0
2023-03-26T01:51:27.248Z,0
2023-03-26T01:52:43.546Z,0
2023-03-26T01:53:59.847Z,0
2023-03-26T01:55:16.134Z,0
2023-03-26T01:56:32.437Z,0
2023-03-26T01:57:48.726Z,0
2023-03-26T01:59:05.022Z,0
2023-03-26T02:00:21.313Z,0
2023-03-26T02:01:37.609Z,0
2023-03-26T02:02:53.894Z,0
2023-03-26T02:05:25.513Z,0
2023-03-26T02:06:41.802Z,0
2023-03-26T02:07:58.103Z,0
2023-03-26T02:09:14.392Z,0
2023-03-26T02:10:30.693Z,0
2023-03-26T02:11:46.981Z,0
2023-03-26T02:13:03.260Z,0
2023-03-26T02:14:19.556Z,0
2023-03-26T02:15:35.863Z,0
2023-03-26T02:16:52.149Z,0
2023-03-26T02:18:08.445Z,0
2023-03-26T02:19:24.738Z,0
2023-03-26T02:20:40.050Z,0
2023-03-26T02:23:12.644Z,0
2023-03-26T02:24:28.925Z,0
2023-03-26T02:25:45.227Z,0
2023-03-26T02:28:17.825Z,0
2023-03-26T02:29:33.134Z,0
2023-03-26T02:30:48.453Z,0
2023-03-26T02:32:04.729Z,0
2023-03-26T02:33:21.036Z,0
2023-03-26T02:34:37.317Z,0
2023-03-26T02:35:53.614Z,0
2023-03-26T02:37:09.909Z,0
2023-03-26T02:38:26.211Z,0
2023-03-26T02:39:42.500Z,0
2023-03-26T02:46:03.981Z,0
2023-03-26T02:47:19.294Z,0
2023-03-26T02:48:34.595Z,0
2023-03-26T02:49:49.906Z,0
2023-03-26T02:51:06.193Z,0
2023-03-26T02:52:22.502Z,0
2023-03-26T02:53:38.792Z,0
2023-03-26T02:54:55.094Z,0
2023-03-26T02:56:11.393Z,0
2023-03-26T02:57:27.671Z,0
2023-03-26T02:58:43.976Z,0
2023-03-26T03:00:00.252Z,0
2023-03-26T03:02:32.848Z,0
2023-03-26T03:03:49.138Z,0
2023-03-26T03:05:05.440Z,0
2023-03-26T03:06:20.746Z,0
2023-03-26T03:07:37.041Z,0
2023-03-26T03:08:53.000Z,0
2023-03-26T03:10:09.632Z,0
2023-03-26T03:11:25.915Z,0
2023-03-26T03:12:42.217Z,0
2023-03-26T03:13:58.515Z,0
2023-03-26T03:15:14.815Z,0
2023-03-26T03:16:31.112Z,0
2023-03-26T03:17:46.409Z,0
2023-03-26T03:19:01.735Z,0
2023-03-26T03:20:18.024Z,0
2023-03-26T03:21:34.322Z,0
2023-03-26T03:22:50.614Z,0
2023-03-26T03:24:06.915Z,0
2023-03-26T03:25:23.205Z,0
2023-03-26T03:26:39.490Z,0
2023-03-26T03:27:55.787Z,0
2023-03-26T03:29:11.105Z,0
2023-03-26T03:30:27.389Z,0
2023-03-26T03:31:42.720Z,0
2023-03-26T03:32:58.020Z,0
2023-03-26T03:34:14.305Z,0
2023-03-26T03:35:30.599Z,0
2023-03-26T03:36:46.901Z,0
2023-03-26T03:38:03.204Z,0
2023-03-26T03:39:19.494Z,0
2023-03-26T03:40:35.775Z,0
2023-03-26T03:41:52.077Z,0
2023-03-26T03:43:08.365Z,0
2023-03-26T03:44:24.658Z,0
2023-03-26T03:45:40.956Z,0
2023-03-26T03:46:57.262Z,0
2023-03-26T03:48:13.558Z,0
2023-03-26T03:49:28.855Z,0
2023-03-26T03:50:45.154Z,0
2023-03-26T03:52:01.448Z,0
2023-03-26T03:54:34.033Z,0
2023-03-26T03:55:50.324Z,0
2023-03-26T03:57:06.634Z,0
2023-03-26T03:58:22.921Z,0
2023-03-26T03:59:39.206Z,0
2023-03-26T04:00:55.509Z,0
2023-03-26T04:02:11.805Z,0
2023-03-26T04:03:28.106Z,0
2023-03-26T04:04:44.385Z,0
2023-03-26T04:05:59.695Z,0
2023-03-26T04:07:15.999Z,0
2023-03-26T04:09:48.588Z,0
2023-03-26T04:11:04.877Z,0
2023-03-26T04:12:21.174Z,0
2023-03-26T04:13:37.458Z,0
2023-03-26T04:14:53.761Z,0
2023-03-26T04:16:10.048Z,0
2023-03-26T04:17:26.350Z,0
2023-03-26T04:18:42.652Z,0
2023-03-26T04:19:58.934Z,0
2023-03-26T04:21:15.207Z,0
2023-03-26T04:22:30.509Z,0
2023-03-26T04:23:46.807Z,0
2023-03-26T04:25:03.096Z,0
2023-03-26T04:26:19.357Z,0
2023-03-26T04:27:35.596Z,0
2023-03-26T04:28:51.818Z,0
2023-03-26T04:30:08.064Z,0
2023-03-26T04:31:24.314Z,0
2023-03-26T04:32:40.567Z,0
2023-03-26T04:33:56.795Z,0
2023-03-26T04:35:13.041Z,0
2023-03-26T04:36:29.289Z,0
2023-03-26T04:37:45.524Z,0
2023-03-26T04:39:00.783Z,0
2023-03-26T04:40:17.021Z,0
2023-03-26T04:41:33.251Z,0
2023-03-26T04:42:49.489Z,0
2023-03-26T04:44:05.748Z,0
2023-03-26T04:45:21.987Z,0
2023-03-26T04:46:38.215Z,0
2023-03-26T04:47:54.466Z,0
2023-03-26T04:49:10.701Z,0
2023-03-26T04:50:26.932Z,0
2023-03-26T04:51:43.169Z,0
2023-03-26T04:52:59.413Z,0
2023-03-26T04:54:15.665Z,5
2023-03-26T04:55:30.911Z,5
2023-03-26T04:56:47.159Z,5
2023-03-26T04:58:03.403Z,5
2023-03-26T04:59:19.626Z,5
2023-03-26T05:00:35.870Z,5
2023-03-26T05:01:52.124Z,11
2023-03-26T05:03:08.362Z,11
2023-03-26T05:04:24.586Z,11
2023-03-26T05:05:40.837Z,11
2023-03-26T05:06:57.082Z,16
2023-03-26T05:08:13.315Z,16
2023-03-26T05:09:29.561Z,16
2023-03-26T05:10:45.805Z,16
2023-03-26T05:12:01.053Z,16
2023-03-26T05:13:17.299Z,22
2023-03-26T05:14:33.544Z,22
2023-03-26T05:15:49.775Z,22
2023-03-26T05:17:06.010Z,28
2023-03-26T05:18:22.251Z,28
2023-03-26T05:19:38.504Z,28
2023-03-26T05:20:54.739Z,33
2023-03-26T05:22:10.979Z,33
2023-03-26T05:23:27.205Z,33
2023-03-26T05:24:43.463Z,39
2023-03-26T05:25:59.699Z,39
2023-03-26T05:27:15.929Z,45
2023-03-26T05:28:31.181Z,45
2023-03-26T05:29:47.425Z,45
2023-03-26T05:31:03.664Z,45
2023-03-26T05:32:19.922Z,45
2023-03-26T05:33:36.157Z,45
2023-03-26T05:34:52.383Z,50
2023-03-26T05:36:08.627Z,50
2023-03-26T05:37:24.880Z,56
2023-03-26T05:38:41.114Z,56
2023-03-26T05:39:57.355Z,56
2023-03-26T05:41:13.583Z,61
2023-03-26T05:42:29.843Z,61
2023-03-26T05:43:46.068Z,61
2023-03-26T05:45:01.329Z,67
2023-03-26T05:46:17.561Z,67
2023-03-26T05:47:33.821Z,73
2023-03-26T05:48:50.054Z,73
2023-03-26T05:50:06.284Z,78
2023-03-26T05:51:22.523Z,78
2023-03-26T05:52:38.774Z,84
2023-03-26T05:53:55.002Z,90
2023-03-26T05:55:11.245Z,95
2023-03-26T05:56:27.497Z,95
2023-03-26T05:57:43.731Z,90
2023-03-26T06:00:16.217Z,84
2023-03-26T06:01:31.474Z,90
2023-03-26T06:02:47.699Z,90
2023-03-26T06:04:03.954Z,95
2023-03-26T06:05:20.180Z,95
2023-03-26T06:06:36.431Z,101
2023-03-26T06:07:52.664Z,106
2023-03-26T06:09:08.914Z,106
2023-03-26T06:10:25.000Z,106
2023-03-26T06:11:41.401Z,106
2023-03-26T06:12:57.641Z,106
2023-03-26T06:14:13.874Z,106
2023-03-26T06:15:30.112Z,112
2023-03-26T06:16:46.349Z,106
2023-03-26T06:18:01.614Z,106
2023-03-26T06:19:17.859Z,106
2023-03-26T06:20:34.086Z,106
2023-03-26T06:21:50.328Z,106
2023-03-26T06:23:06.570Z,106
2023-03-26T06:24:22.802Z,101
2023-03-26T06:25:39.044Z,101
2023-03-26T06:26:55.279Z,95
2023-03-26T06:28:11.536Z,95
2023-03-26T06:29:27.765Z,101
2023-03-26T06:30:44.012Z,101
2023-03-26T06:32:00.241Z,101
2023-03-26T06:33:16.484Z,112
2023-03-26T06:34:31.741Z,112
2023-03-26T06:35:47.992Z,112
2023-03-26T06:37:04.233Z,112
2023-03-26T06:39:36.712Z,123
2023-03-26T06:42:09.180Z,129
2023-03-26T06:44:41.659Z,129
2023-03-26T06:45:56.933Z,123
2023-03-26T06:47:12.189Z,123
2023-03-26T06:48:28.435Z,135
2023-03-26T06:49:44.662Z,135
2023-03-26T06:51:00.908Z,135
2023-03-26T06:52:17.156Z,140
2023-03-26T06:53:33.388Z,135
2023-03-26T06:54:49.628Z,129
2023-03-26T06:57:22.101Z,135
2023-03-26T06:58:38.341Z,140
2023-03-26T06:59:54.578Z,146
2023-03-26T07:01:10.821Z,151
2023-03-26T07:02:27.076Z,151
2023-03-26T07:03:42.320Z,151
2023-03-26T07:04:58.574Z,163
2023-03-26T07:06:14.807Z,168
2023-03-26T07:07:31.047Z,157
2023-03-26T07:08:47.282Z,168
2023-03-26T07:10:03.527Z,168
2023-03-26T07:11:19.759Z,163
2023-03-26T07:12:36.001Z,163
2023-03-26T07:13:51.266Z,168
2023-03-26T07:15:06.523Z,168
2023-03-26T07:16:22.754Z,168
2023-03-26T07:17:38.997Z,174
2023-03-26T07:20:11.479Z,185
2023-03-26T07:21:27.734Z,202
2023-03-26T07:22:43.966Z,202
2023-03-26T07:24:00.210Z,208
2023-03-26T07:25:16.447Z,213
2023-03-26T07:26:32.679Z,225
2023-03-26T07:27:48.916Z,230
2023-03-26T07:29:05.174Z,236
2023-03-26T07:30:21.396Z,236
2023-03-26T07:31:36.653Z,247
2023-03-26T07:32:52.897Z,247
2023-03-26T07:34:09.136Z,253
2023-03-26T07:35:25.374Z,253
2023-03-26T07:36:41.630Z,247
2023-03-26T07:37:57.863Z,253
2023-03-26T07:39:14.099Z,264
2023-03-26T07:40:30.346Z,264
2023-03-26T07:41:46.587Z,264
2023-03-26T07:43:02.830Z,264
2023-03-26T07:44:18.077Z,270
2023-03-26T07:45:34.317Z,258
2023-03-26T07:46:50.555Z,281
2023-03-26T07:48:06.807Z,281
2023-03-26T07:50:39.278Z,286
2023-03-26T07:51:55.527Z,281
2023-03-26T07:53:11.764Z,281
2023-03-26T07:54:28.010Z,286
2023-03-26T07:55:44.237Z,292
2023-03-26T07:57:00.487Z,281
2023-03-26T07:58:16.727Z,286
2023-03-26T07:59:32.962Z,281
2023-03-26T08:00:48.224Z,286
2023-03-26T08:02:04.453Z,281
2023-03-26T08:03:20.704Z,275
2023-03-26T08:04:36.934Z,264
2023-03-26T08:05:53.181Z,264
2023-03-26T08:08:25.658Z,286
2023-03-26T08:09:41.911Z,292
2023-03-26T08:10:58.136Z,292
2023-03-26T08:13:30.633Z,303
2023-03-26T08:16:02.121Z,315
2023-03-26T08:17:17.380Z,320
2023-03-26T08:18:32.647Z,326
2023-03-26T08:19:48.884Z,331
2023-03-26T08:21:05.120Z,337
2023-03-26T08:22:21.358Z,337
2023-03-26T08:23:37.598Z,331
2023-03-26T08:24:53.835Z,326
2023-03-26T08:26:10.080Z,326
2023-03-26T08:27:26.325Z,331
2023-03-26T08:28:42.551Z,331
2023-03-26T08:29:58.805Z,331
2023-03-26T08:31:14.067Z,320
2023-03-26T08:32:29.311Z,326
2023-03-26T08:33:45.554Z,331
2023-03-26T08:35:01.790Z,343
2023-03-26T08:36:18.048Z,348
2023-03-26T08:37:34.288Z,331
2023-03-26T08:38:50.513Z,331
2023-03-26T08:40:06.754Z,337
2023-03-26T08:41:22.996Z,331
2023-03-26T08:42:39.232Z,343
2023-03-26T08:43:55.487Z,343
2023-03-26T08:45:11.713Z,348
2023-03-26T08:46:27.968Z,343
2023-03-26T08:47:44.193Z,331
2023-03-26T08:48:59.459Z,331
2023-03-26T08:50:15.687Z,326
2023-03-26T08:51:31.939Z,331
2023-03-26T08:52:48.180Z,343
2023-03-26T08:54:04.421Z,354
2023-03-26T08:55:20.645Z,371
2023-03-26T08:56:36.899Z,365
2023-03-26T08:57:53.125Z,331
2023-03-26T08:59:09.378Z,298
2023-03-26T09:00:25.623Z,281
2023-03-26T09:01:41.856Z,275
2023-03-26T09:02:58.091Z,253
2023-03-26T09:04:14.327Z,236
2023-03-26T09:05:29.586Z,258
2023-03-26T09:06:45.821Z,275
2023-03-26T09:08:02.072Z,275
2023-03-26T09:09:18.303Z,281
2023-03-26T09:10:34.558Z,292
2023-03-26T09:11:50.782Z,315
2023-03-26T09:13:07.033Z,365
2023-03-26T09:14:23.266Z,376
2023-03-26T09:15:39.513Z,376
2023-03-26T09:16:55.749Z,388
2023-03-26T09:18:11.991Z,382
2023-03-26T09:19:28.236Z,360
2023-03-26T09:20:44.472Z,320
2023-03-26T09:21:59.722Z,326
2023-03-26T09:23:15.978Z,360
2023-03-26T09:24:32.210Z,399
2023-03-26T09:25:48.440Z,410
2023-03-26T09:27:04.685Z,410
2023-03-26T09:28:20.928Z,405
2023-03-26T09:29:37.162Z,399
2023-03-26T09:30:53.401Z,399
2023-03-26T09:32:09.644Z,410
2023-03-26T09:33:25.886Z,421
2023-03-26T09:34:42.129Z,438
2023-03-26T09:35:58.363Z,438
2023-03-26T09:37:14.612Z,421
2023-03-26T09:38:29.862Z,399
2023-03-26T09:39:46.104Z,382
2023-03-26T09:41:02.342Z,399
2023-03-26T09:42:18.592Z,410
2023-03-26T09:43:34.822Z,405
2023-03-26T09:44:51.056Z,348
2023-03-26T09:46:07.299Z,331
2023-03-26T09:47:23.534Z,331
2023-03-26T09:48:39.777Z,326
2023-03-26T09:49:56.030Z,331
2023-03-26T09:51:12.260Z,371
2023-03-26T09:52:28.513Z,410
2023-03-26T09:53:44.743Z,405
2023-03-26T09:54:59.991Z,371
2023-03-26T09:56:16.234Z,320
2023-03-26T09:57:32.468Z,270
2023-03-26T09:58:48.718Z,275
2023-03-26T10:00:04.952Z,326
2023-03-26T10:01:21.207Z,365
2023-03-26T10:02:37.438Z,371
2023-03-26T10:03:53.674Z,365
2023-03-26T10:05:09.909Z,365
2023-03-26T10:06:26.149Z,382
2023-03-26T10:07:42.391Z,388
2023-03-26T10:08:58.631Z,371
2023-03-26T10:10:14.872Z,360
2023-03-26T10:11:30.134Z,365
2023-03-26T10:12:46.380Z,371
2023-03-26T10:14:02.620Z,365
2023-03-26T10:15:18.844Z,371
2023-03-26T10:16:35.096Z,382
2023-03-26T10:17:51.341Z,388
2023-03-26T10:19:07.577Z,371
2023-03-26T10:20:23.819Z,365
2023-03-26T10:21:40.048Z,393
2023-03-26T10:22:56.295Z,393
2023-03-26T10:24:12.525Z,388
2023-03-26T10:25:28.764Z,382
2023-03-26T10:26:45.004Z,365
2023-03-26T10:28:00.259Z,354
2023-03-26T10:29:16.505Z,343
2023-03-26T10:30:32.742Z,337
2023-03-26T10:31:48.993Z,331
2023-03-26T10:33:05.226Z,326
2023-03-26T10:34:21.468Z,331
2023-03-26T10:35:37.708Z,337
2023-03-26T10:36:53.946Z,337
2023-03-26T10:38:10.198Z,337
2023-03-26T10:39:26.426Z,337
2023-03-26T10:40:42.674Z,343
2023-03-26T10:41:58.913Z,343
2023-03-26T10:43:15.156Z,348
2023-03-26T10:44:30.418Z,348
2023-03-26T10:45:46.645Z,360
2023-03-26T10:47:02.880Z,365
2023-03-26T10:48:19.134Z,382
2023-03-26T10:49:35.369Z,393
2023-03-26T10:50:51.598Z,410
2023-03-26T10:52:07.849Z,421
2023-03-26T10:53:24.085Z,438
2023-03-26T10:54:40.331Z,450
2023-03-26T10:55:56.575Z,455
2023-03-26T10:57:12.802Z,466
2023-03-26T10:58:29.045Z,461
2023-03-26T10:59:45.288Z,455
2023-03-26T11:01:00.550Z,461
2023-03-26T11:02:16.786Z,466
2023-03-26T11:03:33.023Z,489
2023-03-26T11:04:49.258Z,500
2023-03-26T11:06:05.509Z,495
2023-03-26T11:07:21.736Z,483
2023-03-26T11:08:37.977Z,472
2023-03-26T11:09:54.221Z,450
2023-03-26T11:11:10.465Z,444
2023-03-26T11:12:26.690Z,433
2023-03-26T11:13:42.941Z,433
2023-03-26T11:14:59.170Z,421
2023-03-26T11:16:15.425Z,416
2023-03-26T11:17:30.677Z,421
2023-03-26T11:18:46.921Z,421
2023-03-26T11:20:03.154Z,410
2023-03-26T11:21:19.397Z,393
2023-03-26T11:22:35.645Z,382
2023-03-26T11:23:51.879Z,376
2023-03-26T11:25:08.111Z,382
2023-03-26T11:26:24.356Z,393
2023-03-26T11:27:40.599Z,388
2023-03-26T11:30:13.079Z,354
2023-03-26T11:31:29.319Z,348
2023-03-26T11:32:45.560Z,348
2023-03-26T11:34:00.802Z,343
2023-03-26T11:35:17.050Z,354
2023-03-26T11:36:33.280Z,343
2023-03-26T11:37:49.539Z,348
2023-03-26T11:39:05.777Z,365
2023-03-26T11:40:22.008Z,399
2023-03-26T11:41:38.247Z,433
2023-03-26T11:42:54.482Z,455
2023-03-26T11:44:10.730Z,466
2023-03-26T11:45:26.979Z,444
2023-03-26T11:46:43.200Z,405
2023-03-26T11:47:59.455Z,382
2023-03-26T11:49:15.690Z,376
2023-03-26T11:50:30.938Z,388
2023-03-26T11:51:47.182Z,393
2023-03-26T11:53:03.434Z,393
2023-03-26T11:54:19.664Z,388
2023-03-26T11:55:35.909Z,371
2023-03-26T11:56:52.150Z,360
2023-03-26T11:58:08.386Z,354
2023-03-26T11:59:23.653Z,348
2023-03-26T12:00:39.892Z,354
2023-03-26T12:01:56.128Z,348
2023-03-26T12:03:12.359Z,343
2023-03-26T12:04:28.602Z,326
2023-03-26T12:05:44.857Z,320
2023-03-26T12:07:01.091Z,315
2023-03-26T12:08:17.333Z,315
2023-03-26T12:09:33.561Z,303
2023-03-26T12:10:49.800Z,292
2023-03-26T12:12:06.041Z,292
2023-03-26T12:13:22.280Z,292
2023-03-26T12:14:38.514Z,286
2023-03-26T12:15:53.780Z,281
2023-03-26T12:17:10.026Z,275
2023-03-26T12:18:26.271Z,275
2023-03-26T12:19:42.506Z,281
2023-03-26T12:20:58.739Z,292
2023-03-26T12:22:14.986Z,309
2023-03-26T12:23:31.217Z,326
2023-03-26T12:24:47.471Z,337
2023-03-26T12:26:03.700Z,348
2023-03-26T12:27:19.948Z,360
2023-03-26T12:28:36.183Z,371
2023-03-26T12:29:52.420Z,388
2023-03-26T12:31:08.652Z,388
2023-03-26T12:32:23.907Z,399
2023-03-26T12:33:40.156Z,410
2023-03-26T12:34:56.406Z,421
2023-03-26T12:36:12.639Z,421
2023-03-26T12:37:28.875Z,405
2023-03-26T12:38:45.123Z,399
2023-03-26T12:40:01.359Z,393
2023-03-26T12:41:17.577Z,371
2023-03-26T12:42:33.835Z,337
2023-03-26T12:43:50.078Z,292
2023-03-26T12:45:06.321Z,247
2023-03-26T12:46:22.554Z,213
2023-03-26T12:47:38.795Z,185
2023-03-26T12:48:54.045Z,168
2023-03-26T12:50:10.285Z,146
2023-03-26T12:51:26.526Z,135
2023-03-26T12:52:42.775Z,112
2023-03-26T12:55:15.243Z,84
2023-03-26T12:56:31.496Z,73
2023-03-26T12:57:47.724Z,67
2023-03-26T12:59:03.975Z,61
2023-03-26T13:00:20.200Z,56
2023-03-26T13:01:36.461Z,50
2023-03-26T13:02:52.691Z,45
2023-03-26T13:04:08.924Z,45
2023-03-26T13:05:24.179Z,39
2023-03-26T13:06:40.417Z,39
2023-03-26T13:07:56.673Z,39
2023-03-26T13:10:29.147Z,39
2023-03-26T13:11:45.395Z,50
2023-03-26T13:13:01.623Z,61
2023-03-26T13:14:17.870Z,67
2023-03-26T13:15:34.097Z,67
2023-03-26T13:16:50.338Z,61
2023-03-26T13:18:06.600Z,61
2023-03-26T13:19:22.825Z,61
2023-03-26T13:20:39.063Z,56
2023-03-26T13:21:54.332Z,56
2023-03-26T13:23:10.565Z,61
2023-03-26T13:24:26.805Z,67
2023-03-26T13:25:43.051Z,73
2023-03-26T13:26:59.277Z,78
2023-03-26T13:28:15.524Z,90
2023-03-26T13:29:31.767Z,101
2023-03-26T13:30:47.998Z,106
2023-03-26T13:33:20.489Z,123
2023-03-26T13:34:36.733Z,123
2023-03-26T13:35:52.954Z,123
2023-03-26T13:37:09.201Z,123
2023-03-26T13:38:24.470Z,123
2023-03-26T13:39:40.694Z,123
2023-03-26T13:40:56.944Z,123
2023-03-26T13:42:13.173Z,129
2023-03-26T13:43:29.429Z,140
2023-03-26T13:44:45.663Z,140
2023-03-26T13:46:01.905Z,140
2023-03-26T13:47:18.142Z,135
2023-03-26T13:48:34.373Z,135
2023-03-26T13:49:50.622Z,140
2023-03-26T13:51:06.857Z,146
2023-03-26T13:52:23.093Z,146
2023-03-26T13:53:39.351Z,135
2023-03-26T13:54:54.590Z,129
2023-03-26T13:56:10.830Z,140
2023-03-26T13:57:27.070Z,157
2023-03-26T13:58:43.325Z,168
2023-03-26T13:59:59.550Z,168
2023-03-26T14:01:15.806Z,168
2023-03-26T14:02:32.037Z,168
2023-03-26T14:03:48.266Z,174
2023-03-26T14:05:04.526Z,168
2023-03-26T14:06:20.748Z,163
2023-03-26T14:07:37.007Z,151
2023-03-26T14:08:53.236Z,146
2023-03-26T14:10:09.472Z,146
2023-03-26T14:11:24.726Z,146
2023-03-26T14:12:40.966Z,146
2023-03-26T14:13:57.214Z,140
2023-03-26T14:15:13.444Z,140
2023-03-26T14:16:29.701Z,140
2023-03-26T14:17:45.931Z,135
2023-03-26T14:19:02.187Z,135
2023-03-26T14:20:18.413Z,140
2023-03-26T14:21:34.644Z,146
2023-03-26T14:22:50.889Z,146
2023-03-26T14:24:07.124Z,151
2023-03-26T14:25:23.365Z,151
2023-03-26T14:27:55.853Z,157
2023-03-26T14:29:11.106Z,157
2023-03-26T14:30:27.353Z,157
2023-03-26T14:31:43.580Z,157
2023-03-26T14:32:59.840Z,151
2023-03-26T14:34:16.069Z,151
2023-03-26T14:35:32.311Z,151
2023-03-26T14:36:48.000Z,146
2023-03-26T14:38:04.792Z,146
2023-03-26T14:39:21.030Z,140
2023-03-26T14:40:37.276Z,135
2023-03-26T14:41:53.516Z,129
2023-03-26T14:43:09.742Z,129
2023-03-26T14:44:25.987Z,129
2023-03-26T14:45:41.249Z,123
2023-03-26T14:46:57.485Z,129
2023-03-26T14:48:13.727Z,129
2023-03-26T14:50:46.204Z,129
2023-03-26T14:52:02.447Z,129
2023-03-26T14:53:18.697Z,129
2023-03-26T14:54:34.922Z,129
2023-03-26T14:55:51.000Z,129
2023-03-26T14:57:07.402Z,129
2023-03-26T14:59:39.893Z,129
2023-03-26T15:00:56.129Z,129
2023-03-26T15:02:11.375Z,129
2023-03-26T15:03:27.623Z,129
2023-03-26T15:04:43.867Z,129
2023-03-26T15:06:00.094Z,129
2023-03-26T15:07:16.337Z,129
2023-03-26T15:08:32.582Z,129
2023-03-26T15:09:48.832Z,123
2023-03-26T15:11:05.072Z,123
2023-03-26T15:12:21.306Z,123
2023-03-26T15:13:37.000Z,118
2023-03-26T15:14:53.788Z,118
2023-03-26T15:16:10.015Z,112
2023-03-26T15:17:26.259Z,112
2023-03-26T15:18:41.520Z,106
2023-03-26T15:19:57.753Z,106
2023-03-26T15:21:13.995Z,106
2023-03-26T15:22:30.234Z,106
2023-03-26T15:23:46.488Z,106
2023-03-26T15:25:02.722Z,106
2023-03-26T15:27:35.199Z,106
2023-03-26T15:28:51.443Z,106
2023-03-26T15:30:07.681Z,101
2023-03-26T15:31:23.916Z,101
2023-03-26T15:32:40.162Z,101
2023-03-26T15:33:56.400Z,95
2023-03-26T15:35:11.665Z,95
2023-03-26T15:36:27.892Z,90
2023-03-26T15:37:44.129Z,90
2023-03-26T15:39:00.380Z,90
2023-03-26T15:40:16.610Z,84
2023-03-26T15:41:32.852Z,78
2023-03-26T15:42:49.105Z,78
2023-03-26T15:44:05.337Z,73
2023-03-26T15:45:21.583Z,73
2023-03-26T15:46:37.807Z,73
2023-03-26T15:47:54.051Z,67
2023-03-26T15:50:26.548Z,67
2023-03-26T15:51:41.797Z,67
2023-03-26T15:52:58.030Z,67
2023-03-26T15:55:30.507Z,67
2023-03-26T15:56:46.744Z,61
2023-03-26T15:58:03.004Z,61
2023-03-26T15:59:19.228Z,61
2023-03-26T16:00:35.464Z,61
2023-03-26T16:01:51.713Z,67
2023-03-26T16:03:07.945Z,67
2023-03-26T16:04:24.203Z,61
2023-03-26T16:06:56.684Z,61
2023-03-26T16:08:11.938Z,61
2023-03-26T16:09:27.187Z,61
2023-03-26T16:10:43.439Z,56
2023-03-26T16:11:59.670Z,56
2023-03-26T16:13:15.907Z,56
2023-03-26T16:14:31.172Z,56
2023-03-26T16:15:47.410Z,50
2023-03-26T16:17:03.643Z,50
2023-03-26T16:18:19.902Z,50
2023-03-26T16:19:36.141Z,50
2023-03-26T16:20:52.370Z,50
2023-03-26T16:22:07.633Z,50
2023-03-26T16:23:22.894Z,50
2023-03-26T16:24:39.128Z,50
2023-03-26T16:25:55.360Z,45
2023-03-26T16:28:27.858Z,45
2023-03-26T16:29:44.084Z,45
2023-03-26T16:31:00.339Z,39
2023-03-26T16:32:16.577Z,39
2023-03-26T16:33:32.802Z,39
2023-03-26T16:34:49.042Z,39
2023-03-26T16:36:05.297Z,39
2023-03-26T16:37:21.537Z,33
2023-03-26T16:38:37.770Z,33
2023-03-26T16:39:53.022Z,33
2023-03-26T16:41:09.278Z,28
2023-03-26T16:42:25.509Z,28
2023-03-26T16:43:41.741Z,28
2023-03-26T16:44:57.991Z,22
2023-03-26T16:46:14.228Z,16
2023-03-26T16:47:30.472Z,16
2023-03-26T16:48:46.719Z,16
2023-03-26T16:50:02.954Z,22
2023-03-26T16:51:19.189Z,22
2023-03-26T16:52:35.429Z,22
2023-03-26T16:53:51.671Z,22
2023-03-26T16:55:07.906Z,16
2023-03-26T16:56:23.155Z,16
2023-03-26T16:57:39.400Z,16
2023-03-26T16:58:55.637Z,16
2023-03-26T17:00:11.881Z,16
2023-03-26T17:01:28.122Z,16
2023-03-26T17:02:44.361Z,16
2023-03-26T17:04:00.601Z,16
2023-03-26T17:05:16.840Z,16
2023-03-26T17:07:49.331Z,11
2023-03-26T17:09:05.573Z,11
2023-03-26T17:10:21.801Z,11
2023-03-26T17:11:38.055Z,11
2023-03-26T17:12:53.306Z,11
2023-03-26T17:14:09.539Z,11
2023-03-26T17:15:25.777Z,11
2023-03-26T17:16:42.021Z,5
2023-03-26T17:17:58.272Z,5
2023-03-26T17:19:14.493Z,5
2023-03-26T17:20:30.736Z,5
2023-03-26T17:21:46.980Z,5
2023-03-26T17:23:03.220Z,5
2023-03-26T17:24:19.473Z,5
2023-03-26T17:25:35.709Z,5
2023-03-26T17:26:51.936Z,0
2023-03-26T17:28:08.180Z,0
2023-03-26T17:29:23.444Z,0
2023-03-26T17:30:39.689Z,0
2023-03-26T17:31:55.912Z,0
2023-03-26T17:33:12.171Z,0
2023-03-26T17:34:28.398Z,0
2023-03-26T17:35:44.636Z,0
2023-03-26T17:37:00.882Z,0
2023-03-26T17:38:17.123Z,0
2023-03-26T17:39:33.368Z,0
2023-03-26T17:40:49.592Z,0
2023-03-26T17:42:05.836Z,0
2023-03-26T17:43:22.075Z,0
2023-03-26T17:44:38.324Z,0
2023-03-26T17:45:53.584Z,0
2023-03-26T17:47:09.823Z,0
2023-03-26T17:48:26.056Z,0
2023-03-26T17:49:42.305Z,0
2023-03-26T17:50:58.535Z,0
2023-03-26T17:52:14.784Z,0
2023-03-26T17:53:31.028Z,0
2023-03-26T17:54:47.261Z,0
2023-03-26T17:56:03.505Z,0
2023-03-26T17:57:19.730Z,0
2023-03-26T17:58:35.976Z,0
2023-03-26T17:59:52.215Z,0
2023-03-26T18:01:08.453Z,0
2023-03-26T18:02:23.772Z,0
2023-03-26T18:03:40.060Z,0
2023-03-26T18:06:12.647Z,0
2023-03-26T18:07:28.944Z,0
2023-03-26T18:08:45.248Z,0
2023-03-26T18:10:01.540Z,0
2023-03-26T18:11:17.822Z,0
2023-03-26T18:12:34.135Z,0
2023-03-26T18:13:50.417Z,0
2023-03-26T18:16:23.010Z,0
2023-03-26T18:17:39.307Z,0
2023-03-26T18:18:54.606Z,0
2023-03-26T18:20:10.903Z,0
2023-03-26T18:21:27.195Z,0
2023-03-26T18:22:43.485Z,0
2023-03-26T18:23:59.789Z,0
2023-03-26T18:25:16.076Z,0
2023-03-26T18:26:32.379Z,0
2023-03-26T18:27:48.667Z,0
2023-03-26T18:30:21.259Z,0
2023-03-26T18:31:36.584Z,0
2023-03-26T18:32:51.879Z,0
2023-03-26T18:34:08.185Z,0
2023-03-26T18:35:24.481Z,0
2023-03-26T18:36:40.773Z,0
2023-03-26T18:37:57.053Z,0
2023-03-26T18:39:13.364Z,0
2023-03-26T18:40:29.658Z,0
2023-03-26T18:41:45.935Z,0
2023-03-26T18:43:02.232Z,0
2023-03-26T18:44:18.527Z,0
2023-03-26T18:45:33.843Z,0
2023-03-26T18:46:49.151Z,0
2023-03-26T18:48:05.468Z,0
2023-03-26T18:49:21.739Z,0
2023-03-26T18:50:38.050Z,0
2023-03-26T18:53:10.626Z,0